sensor_id;sensor_type;location;lat;lon;timestamp;temperature;humidity
1049;DHT22;513;51.444;7.196;2022-11-28T00:00:43;6.70;99.90
1049;DHT22;513;51.444;7.196;2022-11-28T00:03:10;6.70;99.90
1049;DHT22;513;51.444;7.196;2022-11-28T00:05:36;6.60;99.90
1049;DHT22;513;51.444;7.196;2022-11-28T00:08:03;6.50;99.90
1049;DHT22;513;51.444;7.196;2022-11-28T00:10:30;6.50;99.90
1049;DHT22;513;51.444;7.196;2022-11-28T00:12:56;6.60;99.90
1049;DHT22;513;51.444;7.196;2022-11-28T00:15:24;6.70;99.90
1049;DHT22;513;51.444;7.196;2022-11-28T00:17:51;6.60;99.90
1049;DHT22;513;51.444;7.196;2022-11-28T00:20:18;6.60;99.90
1049;DHT22;513;51.444;7.196;2022-11-28T00:22:44;6.60;99.90
1049;DHT22;513;51.444;7.196;2022-11-28T00:25:11;6.60;99.90
1049;DHT22;513;51.444;7.196;2022-11-28T00:27:38;6.50;99.90
1049;DHT22;513;51.444;7.196;2022-11-28T00:30:05;6.60;99.90
1049;DHT22;513;51.444;7.196;2022-11-28T00:32:34;6.60;99.90
1049;DHT22;513;51.444;7.196;2022-11-28T00:35:00;6.50;99.90
1049;DHT22;513;51.444;7.196;2022-11-28T00:37:27;6.50;99.90
1049;DHT22;513;51.444;7.196;2022-11-28T00:39:54;6.50;99.90
1049;DHT22;513;51.444;7.196;2022-11-28T00:42:20;6.60;99.90
1049;DHT22;513;51.444;7.196;2022-11-28T00:44:47;6.60;99.90
1049;DHT22;513;51.444;7.196;2022-11-28T00:47:14;6.50;99.90
1049;DHT22;513;51.444;7.196;2022-11-28T00:49:42;6.60;99.90
1049;DHT22;513;51.444;7.196;2022-11-28T00:52:09;6.60;99.90
1049;DHT22;513;51.444;7.196;2022-11-28T00:54:36;6.60;99.90
1049;DHT22;513;51.444;7.196;2022-11-28T00:57:03;6.60;99.90
1049;DHT22;513;51.444;7.196;2022-11-28T00:59:29;6.60;99.90
1049;DHT22;513;51.444;7.196;2022-11-28T01:01:56;6.50;99.90
1049;DHT22;513;51.444;7.196;2022-11-28T01:04:23;6.50;99.90
1049;DHT22;513;51.444;7.196;2022-11-28T01:06:55;6.60;99.90
1049;DHT22;513;51.444;7.196;2022-11-28T01:09:23;6.60;99.90
1049;DHT22;513;51.444;7.196;2022-11-28T01:11:51;6.60;99.90
1049;DHT22;513;51.444;7.196;2022-11-28T01:14:18;6.60;99.90
1049;DHT22;513;51.444;7.196;2022-11-28T01:16:45;6.60;99.90
1049;DHT22;513;51.444;7.196;2022-11-28T01:19:12;6.70;99.90
1049;DHT22;513;51.444;7.196;2022-11-28T01:21:39;6.70;99.90
1049;DHT22;513;51.444;7.196;2022-11-28T01:24:07;6.70;99.90
1049;DHT22;513;51.444;7.196;2022-11-28T01:26:37;6.60;99.90
1049;DHT22;513;51.444;7.196;2022-11-28T01:29:04;6.60;99.90
1049;DHT22;513;51.444;7.196;2022-11-28T01:31:30;6.60;99.90
1049;DHT22;513;51.444;7.196;2022-11-28T01:33:57;6.60;99.90
1049;DHT22;513;51.444;7.196;2022-11-28T01:36:24;6.70;99.90
1049;DHT22;513;51.444;7.196;2022-11-28T01:38:51;6.70;99.90
1049;DHT22;513;51.444;7.196;2022-11-28T01:41:22;6.60;99.90
1049;DHT22;513;51.444;7.196;2022-11-28T01:43:57;6.70;99.90
1049;DHT22;513;51.444;7.196;2022-11-28T01:46:25;6.70;99.90
1049;DHT22;513;51.444;7.196;2022-11-28T01:48:52;6.60;99.90
1049;DHT22;513;51.444;7.196;2022-11-28T01:51:20;6.60;99.90
1049;DHT22;513;51.444;7.196;2022-11-28T01:53:47;6.60;99.90
1049;DHT22;513;51.444;7.196;2022-11-28T01:56:17;6.60;99.90
1049;DHT22;513;51.444;7.196;2022-11-28T01:58:50;6.60;99.90
1049;DHT22;513;51.444;7.196;2022-11-28T02:01:18;6.60;99.90
1049;DHT22;513;51.444;7.196;2022-11-28T02:03:47;6.60;99.90
1049;DHT22;513;51.444;7.196;2022-11-28T02:06:16;6.70;99.90
1049;DHT22;513;51.444;7.196;2022-11-28T02:08:44;6.60;99.90
1049;DHT22;513;51.444;7.196;2022-11-28T02:11:29;6.50;99.90
1049;DHT22;513;51.444;7.196;2022-11-28T02:14:10;6.50;99.90
1049;DHT22;513;51.444;7.196;2022-11-28T02:16:48;6.50;99.90
1049;DHT22;513;51.444;7.196;2022-11-28T02:19:45;6.50;99.90
1049;DHT22;513;51.444;7.196;2022-11-28T02:22:21;6.50;99.90
1049;DHT22;513;51.444;7.196;2022-11-28T02:25:11;6.40;99.90
1049;DHT22;513;51.444;7.196;2022-11-28T02:30:53;6.40;99.90
1049;DHT22;513;51.444;7.196;2022-11-28T02:33:26;6.40;99.90
1049;DHT22;513;51.444;7.196;2022-11-28T02:36:03;6.50;99.90
1049;DHT22;513;51.444;7.196;2022-11-28T02:38:46;6.40;99.90
1049;DHT22;513;51.444;7.196;2022-11-28T02:41:21;6.40;99.90
1049;DHT22;513;51.444;7.196;2022-11-28T02:43:55;6.40;99.90
1049;DHT22;513;51.444;7.196;2022-11-28T02:46:28;6.50;99.90
1049;DHT22;513;51.444;7.196;2022-11-28T02:48:59;6.40;99.90
1049;DHT22;513;51.444;7.196;2022-11-28T02:51:32;6.40;99.90
1049;DHT22;513;51.444;7.196;2022-11-28T02:54:01;6.40;99.90
1049;DHT22;513;51.444;7.196;2022-11-28T02:56:28;6.50;99.90
1049;DHT22;513;51.444;7.196;2022-11-28T02:58:55;6.50;99.90
1049;DHT22;513;51.444;7.196;2022-11-28T03:01:26;6.50;99.90
1049;DHT22;513;51.444;7.196;2022-11-28T03:04:10;6.50;99.90
1049;DHT22;513;51.444;7.196;2022-11-28T03:06:46;6.50;99.90
1049;DHT22;513;51.444;7.196;2022-11-28T03:09:30;6.60;99.90
1049;DHT22;513;51.444;7.196;2022-11-28T03:12:13;6.50;99.90
1049;DHT22;513;51.444;7.196;2022-11-28T03:14:48;6.50;99.90
1049;DHT22;513;51.444;7.196;2022-11-28T03:17:20;6.50;99.90
1049;DHT22;513;51.444;7.196;2022-11-28T03:19:54;6.50;99.90
1049;DHT22;513;51.444;7.196;2022-11-28T03:22:28;6.50;99.90
1049;DHT22;513;51.444;7.196;2022-11-28T03:24:59;6.50;99.90
1049;DHT22;513;51.444;7.196;2022-11-28T03:27:31;6.50;99.90
1049;DHT22;513;51.444;7.196;2022-11-28T03:30:04;6.50;99.90
1049;DHT22;513;51.444;7.196;2022-11-28T03:32:35;6.50;99.90
1049;DHT22;513;51.444;7.196;2022-11-28T03:35:05;6.50;99.90
1049;DHT22;513;51.444;7.196;2022-11-28T03:37:37;6.50;99.90
1049;DHT22;513;51.444;7.196;2022-11-28T03:40:09;6.50;99.90
1049;DHT22;513;51.444;7.196;2022-11-28T03:42:40;6.50;99.90
1049;DHT22;513;51.444;7.196;2022-11-28T03:45:11;6.50;99.90
1049;DHT22;513;51.444;7.196;2022-11-28T03:47:41;6.50;99.90
1049;DHT22;513;51.444;7.196;2022-11-28T03:50:13;6.40;99.90
1049;DHT22;513;51.444;7.196;2022-11-28T03:52:45;6.40;99.90
1049;DHT22;513;51.444;7.196;2022-11-28T03:55:19;6.50;99.90
1049;DHT22;513;51.444;7.196;2022-11-28T03:57:50;6.50;99.90
1049;DHT22;513;51.444;7.196;2022-11-28T04:00:19;6.50;99.90
1049;DHT22;513;51.444;7.196;2022-11-28T04:02:51;6.50;99.90
1049;DHT22;513;51.444;7.196;2022-11-28T04:05:25;6.50;99.90
1049;DHT22;513;51.444;7.196;2022-11-28T04:07:56;6.50;99.90
1049;DHT22;513;51.444;7.196;2022-11-28T04:10:28;6.50;99.90
1049;DHT22;513;51.444;7.196;2022-11-28T04:13:00;6.50;99.90
1049;DHT22;513;51.444;7.196;2022-11-28T04:15:36;6.50;99.90
1049;DHT22;513;51.444;7.196;2022-11-28T04:18:12;6.50;99.90
1049;DHT22;513;51.444;7.196;2022-11-28T04:20:48;6.50;99.90
1049;DHT22;513;51.444;7.196;2022-11-28T04:23:17;6.50;99.90
1049;DHT22;513;51.444;7.196;2022-11-28T04:25:51;6.50;99.90
1049;DHT22;513;51.444;7.196;2022-11-28T04:28:22;6.50;99.90
1049;DHT22;513;51.444;7.196;2022-11-28T04:30:50;6.60;99.90
1049;DHT22;513;51.444;7.196;2022-11-28T04:33:20;6.60;99.90
1049;DHT22;513;51.444;7.196;2022-11-28T04:35:51;6.50;99.90
1049;DHT22;513;51.444;7.196;2022-11-28T04:38:20;6.50;99.90
1049;DHT22;513;51.444;7.196;2022-11-28T04:40:52;6.50;99.90
1049;DHT22;513;51.444;7.196;2022-11-28T04:43:23;6.60;99.90
1049;DHT22;513;51.444;7.196;2022-11-28T04:45:53;6.60;99.90
1049;DHT22;513;51.444;7.196;2022-11-28T04:48:21;6.50;99.90
1049;DHT22;513;51.444;7.196;2022-11-28T04:50:55;6.50;99.90
1049;DHT22;513;51.444;7.196;2022-11-28T04:53:31;6.50;99.90
1049;DHT22;513;51.444;7.196;2022-11-28T04:56:02;6.60;99.90
1049;DHT22;513;51.444;7.196;2022-11-28T04:58:33;6.60;99.90
1049;DHT22;513;51.444;7.196;2022-11-28T05:01:04;6.60;99.90
1049;DHT22;513;51.444;7.196;2022-11-28T05:03:32;6.60;99.90
1049;DHT22;513;51.444;7.196;2022-11-28T05:06:01;6.70;99.90
1049;DHT22;513;51.444;7.196;2022-11-28T05:08:29;6.70;99.90
1049;DHT22;513;51.444;7.196;2022-11-28T05:10:55;6.70;99.90
1049;DHT22;513;51.444;7.196;2022-11-28T05:13:22;6.70;96.80
1049;DHT22;513;51.444;7.196;2022-11-28T05:15:49;6.60;98.90
1049;DHT22;513;51.444;7.196;2022-11-28T05:18:15;6.70;91.80
1049;DHT22;513;51.444;7.196;2022-11-28T05:20:42;6.70;97.10
1049;DHT22;513;51.444;7.196;2022-11-28T05:23:10;6.70;98.40
1049;DHT22;513;51.444;7.196;2022-11-28T05:25:37;6.70;85.50
1049;DHT22;513;51.444;7.196;2022-11-28T05:28:04;6.70;92.30
1049;DHT22;513;51.444;7.196;2022-11-28T05:30:31;6.70;99.90
1049;DHT22;513;51.444;7.196;2022-11-28T05:32:58;6.70;97.70
1049;DHT22;513;51.444;7.196;2022-11-28T05:35:25;6.70;99.10
1049;DHT22;513;51.444;7.196;2022-11-28T05:37:51;6.70;92.30
1049;DHT22;513;51.444;7.196;2022-11-28T05:40:19;6.70;90.20
1049;DHT22;513;51.444;7.196;2022-11-28T05:42:46;6.80;70.40
1049;DHT22;513;51.444;7.196;2022-11-28T05:45:13;6.80;73.80
1049;DHT22;513;51.444;7.196;2022-11-28T05:47:39;6.80;67.40
1049;DHT22;513;51.444;7.196;2022-11-28T05:50:07;6.80;67.10
1049;DHT22;513;51.444;7.196;2022-11-28T05:52:33;6.70;74.70
1049;DHT22;513;51.444;7.196;2022-11-28T05:55:00;6.80;71.90
1049;DHT22;513;51.444;7.196;2022-11-28T05:57:28;6.80;72.10
1049;DHT22;513;51.444;7.196;2022-11-28T05:59:56;6.80;74.30
1049;DHT22;513;51.444;7.196;2022-11-28T06:02:24;6.70;74.10
1049;DHT22;513;51.444;7.196;2022-11-28T06:04:50;6.70;82.70
1049;DHT22;513;51.444;7.196;2022-11-28T06:07:17;6.70;87.90
1049;DHT22;513;51.444;7.196;2022-11-28T06:09:44;6.70;84.70
1049;DHT22;513;51.444;7.196;2022-11-28T06:12:10;6.60;93.00
1049;DHT22;513;51.444;7.196;2022-11-28T06:14:39;6.70;92.90
1049;DHT22;513;51.444;7.196;2022-11-28T06:17:06;6.70;94.70
1049;DHT22;513;51.444;7.196;2022-11-28T06:19:32;6.80;92.80
1049;DHT22;513;51.444;7.196;2022-11-28T06:21:59;6.70;90.60
1049;DHT22;513;51.444;7.196;2022-11-28T06:24:26;6.70;91.80
1049;DHT22;513;51.444;7.196;2022-11-28T06:26:52;6.70;90.70
1049;DHT22;513;51.444;7.196;2022-11-28T06:29:19;6.70;91.10
1049;DHT22;513;51.444;7.196;2022-11-28T06:31:47;6.70;85.10
1049;DHT22;513;51.444;7.196;2022-11-28T06:34:14;6.70;86.10
1049;DHT22;513;51.444;7.196;2022-11-28T06:36:41;6.70;82.00
1049;DHT22;513;51.444;7.196;2022-11-28T06:39:11;6.70;84.70
1049;DHT22;513;51.444;7.196;2022-11-28T06:41:38;6.70;79.90
1049;DHT22;513;51.444;7.196;2022-11-28T06:44:05;6.70;75.80
1049;DHT22;513;51.444;7.196;2022-11-28T06:46:31;6.60;80.00
1049;DHT22;513;51.444;7.196;2022-11-28T06:48:59;6.60;78.60
1049;DHT22;513;51.444;7.196;2022-11-28T06:51:26;6.60;79.20
1049;DHT22;513;51.444;7.196;2022-11-28T06:53:53;6.60;80.10
1049;DHT22;513;51.444;7.196;2022-11-28T06:56:20;6.60;67.50
1049;DHT22;513;51.444;7.196;2022-11-28T06:58:52;6.60;69.10
1049;DHT22;513;51.444;7.196;2022-11-28T07:01:21;6.60;64.50
1049;DHT22;513;51.444;7.196;2022-11-28T07:03:48;6.60;55.60
1049;DHT22;513;51.444;7.196;2022-11-28T07:06:17;6.60;56.60
1049;DHT22;513;51.444;7.196;2022-11-28T07:08:44;6.60;48.20
1049;DHT22;513;51.444;7.196;2022-11-28T07:11:13;6.70;44.20
1049;DHT22;513;51.444;7.196;2022-11-28T07:13:40;6.70;45.10
1049;DHT22;513;51.444;7.196;2022-11-28T07:16:12;6.60;49.00
1049;DHT22;513;51.444;7.196;2022-11-28T07:18:39;6.60;44.50
1049;DHT22;513;51.444;7.196;2022-11-28T07:21:06;6.60;40.00
1049;DHT22;513;51.444;7.196;2022-11-28T07:23:34;6.60;38.20
1049;DHT22;513;51.444;7.196;2022-11-28T07:26:02;6.60;41.50
1049;DHT22;513;51.444;7.196;2022-11-28T07:28:29;6.60;43.80
1049;DHT22;513;51.444;7.196;2022-11-28T07:31:01;6.60;44.60
1049;DHT22;513;51.444;7.196;2022-11-28T07:33:28;6.60;43.10
1049;DHT22;513;51.444;7.196;2022-11-28T07:35:59;6.60;39.40
1049;DHT22;513;51.444;7.196;2022-11-28T07:38:26;6.60;43.00
1049;DHT22;513;51.444;7.196;2022-11-28T07:40:54;6.60;47.60
1049;DHT22;513;51.444;7.196;2022-11-28T07:43:21;6.60;43.00
1049;DHT22;513;51.444;7.196;2022-11-28T07:45:47;6.60;34.40
1049;DHT22;513;51.444;7.196;2022-11-28T07:48:14;6.70;37.10
1049;DHT22;513;51.444;7.196;2022-11-28T07:50:40;6.70;27.80
1049;DHT22;513;51.444;7.196;2022-11-28T07:53:07;6.70;30.30
1049;DHT22;513;51.444;7.196;2022-11-28T07:55:34;6.70;30.70
1049;DHT22;513;51.444;7.196;2022-11-28T07:58:03;6.80;22.10
1049;DHT22;513;51.444;7.196;2022-11-28T08:00:30;6.80;18.70
1049;DHT22;513;51.444;7.196;2022-11-28T08:02:57;6.70;19.20
1049;DHT22;513;51.444;7.196;2022-11-28T08:05:23;6.70;20.70
1049;DHT22;513;51.444;7.196;2022-11-28T08:07:50;6.70;22.80
1049;DHT22;513;51.444;7.196;2022-11-28T08:10:17;6.70;25.00
1049;DHT22;513;51.444;7.196;2022-11-28T08:12:44;6.70;19.90
1049;DHT22;513;51.444;7.196;2022-11-28T08:15:12;6.80;22.20
1049;DHT22;513;51.444;7.196;2022-11-28T08:17:38;6.80;17.90
1049;DHT22;513;51.444;7.196;2022-11-28T08:20:06;6.80;25.00
1049;DHT22;513;51.444;7.196;2022-11-28T08:22:33;6.80;30.60
1049;DHT22;513;51.444;7.196;2022-11-28T08:25:00;6.80;25.00
1049;DHT22;513;51.444;7.196;2022-11-28T08:27:27;6.80;28.40
1049;DHT22;513;51.444;7.196;2022-11-28T08:29:53;6.80;30.40
1049;DHT22;513;51.444;7.196;2022-11-28T08:32:21;6.90;31.30
1049;DHT22;513;51.444;7.196;2022-11-28T08:34:48;6.80;37.40
1049;DHT22;513;51.444;7.196;2022-11-28T08:37:15;6.80;41.10
1049;DHT22;513;51.444;7.196;2022-11-28T08:39:41;6.90;43.80
1049;DHT22;513;51.444;7.196;2022-11-28T08:42:08;6.90;47.70
1049;DHT22;513;51.444;7.196;2022-11-28T08:44:35;6.90;50.30
1049;DHT22;513;51.444;7.196;2022-11-28T08:47:02;6.90;53.80
1049;DHT22;513;51.444;7.196;2022-11-28T08:49:30;6.90;65.30
1049;DHT22;513;51.444;7.196;2022-11-28T08:51:57;7.00;61.00
1049;DHT22;513;51.444;7.196;2022-11-28T08:54:23;7.00;61.70
1049;DHT22;513;51.444;7.196;2022-11-28T08:56:50;7.00;61.20
1049;DHT22;513;51.444;7.196;2022-11-28T08:59:17;7.00;67.50
1049;DHT22;513;51.444;7.196;2022-11-28T09:01:43;7.00;69.20
1049;DHT22;513;51.444;7.196;2022-11-28T09:04:10;7.00;85.10
1049;DHT22;513;51.444;7.196;2022-11-28T09:06:38;7.10;86.70
1049;DHT22;513;51.444;7.196;2022-11-28T09:09:05;7.10;91.70
1049;DHT22;513;51.444;7.196;2022-11-28T09:11:33;7.10;83.00
1049;DHT22;513;51.444;7.196;2022-11-28T09:14:00;7.20;89.00
1049;DHT22;513;51.444;7.196;2022-11-28T09:16:27;7.20;91.50
1049;DHT22;513;51.444;7.196;2022-11-28T09:18:54;7.30;93.60
1049;DHT22;513;51.444;7.196;2022-11-28T09:21:22;7.30;81.90
1049;DHT22;513;51.444;7.196;2022-11-28T09:23:52;7.30;80.00
1049;DHT22;513;51.444;7.196;2022-11-28T09:26:21;7.40;79.80
1049;DHT22;513;51.444;7.196;2022-11-28T09:28:48;7.40;86.40
1049;DHT22;513;51.444;7.196;2022-11-28T09:31:17;7.50;82.80
1049;DHT22;513;51.444;7.196;2022-11-28T09:33:44;7.50;69.90
1049;DHT22;513;51.444;7.196;2022-11-28T09:36:14;7.60;69.30
1049;DHT22;513;51.444;7.196;2022-11-28T09:38:41;7.60;75.70
1049;DHT22;513;51.444;7.196;2022-11-28T09:41:28;7.60;81.20
1049;DHT22;513;51.444;7.196;2022-11-28T09:44:00;7.60;76.60
1049;DHT22;513;51.444;7.196;2022-11-28T09:46:30;7.60;90.40
1049;DHT22;513;51.444;7.196;2022-11-28T09:49:01;7.60;70.70
1049;DHT22;513;51.444;7.196;2022-11-28T09:51:33;7.70;96.30
1049;DHT22;513;51.444;7.196;2022-11-28T09:54:05;7.70;95.40
1049;DHT22;513;51.444;7.196;2022-11-28T09:56:36;7.70;95.60
1049;DHT22;513;51.444;7.196;2022-11-28T09:59:03;7.70;91.80
1049;DHT22;513;51.444;7.196;2022-11-28T10:01:36;7.70;92.60
1049;DHT22;513;51.444;7.196;2022-11-28T10:04:10;7.60;95.70
1049;DHT22;513;51.444;7.196;2022-11-28T10:06:42;7.70;99.90
1049;DHT22;513;51.444;7.196;2022-11-28T10:09:20;7.70;99.90
1049;DHT22;513;51.444;7.196;2022-11-28T10:12:02;7.80;97.80
1049;DHT22;513;51.444;7.196;2022-11-28T10:15:02;7.70;98.00
1049;DHT22;513;51.444;7.196;2022-11-28T10:17:37;7.70;99.90
1049;DHT22;513;51.444;7.196;2022-11-28T10:20:11;7.70;96.40
1049;DHT22;513;51.444;7.196;2022-11-28T10:22:43;7.70;99.90
1049;DHT22;513;51.444;7.196;2022-11-28T10:25:15;7.70;99.90
1049;DHT22;513;51.444;7.196;2022-11-28T10:27:45;7.70;99.90
1049;DHT22;513;51.444;7.196;2022-11-28T10:30:17;7.70;99.90
1049;DHT22;513;51.444;7.196;2022-11-28T10:32:52;7.60;99.90
1049;DHT22;513;51.444;7.196;2022-11-28T10:35:25;7.70;99.90
1049;DHT22;513;51.444;7.196;2022-11-28T10:37:53;7.70;99.90
1049;DHT22;513;51.444;7.196;2022-11-28T10:40:26;7.70;99.90
1049;DHT22;513;51.444;7.196;2022-11-28T10:43:01;7.70;99.90
1049;DHT22;513;51.444;7.196;2022-11-28T10:45:35;7.70;99.90
1049;DHT22;513;51.444;7.196;2022-11-28T10:48:18;7.70;99.90
1049;DHT22;513;51.444;7.196;2022-11-28T10:50:51;7.70;99.90
1049;DHT22;513;51.444;7.196;2022-11-28T10:53:28;7.70;99.90
1049;DHT22;513;51.444;7.196;2022-11-28T10:56:03;7.70;99.90
1049;DHT22;513;51.444;7.196;2022-11-28T10:58:40;7.70;99.90
1049;DHT22;513;51.444;7.196;2022-11-28T11:01:08;7.70;99.90
1049;DHT22;513;51.444;7.196;2022-11-28T11:03:36;7.70;99.90
1049;DHT22;513;51.444;7.196;2022-11-28T11:06:05;7.70;99.90
1049;DHT22;513;51.444;7.196;2022-11-28T11:08:34;7.70;99.90
1049;DHT22;513;51.444;7.196;2022-11-28T11:11:03;7.60;99.90
1049;DHT22;513;51.444;7.196;2022-11-28T11:13:32;7.70;99.90
1049;DHT22;513;51.444;7.196;2022-11-28T11:16:03;7.70;99.90
1049;DHT22;513;51.444;7.196;2022-11-28T11:18:33;7.80;99.90
1049;DHT22;513;51.444;7.196;2022-11-28T11:21:13;7.80;99.90
1049;DHT22;513;51.444;7.196;2022-11-28T11:23:40;7.80;99.90
1049;DHT22;513;51.444;7.196;2022-11-28T11:26:18;7.80;99.90
1049;DHT22;513;51.444;7.196;2022-11-28T11:28:47;7.80;99.90
1049;DHT22;513;51.444;7.196;2022-11-28T11:31:21;7.80;99.90
1049;DHT22;513;51.444;7.196;2022-11-28T11:33:51;7.80;99.90
1049;DHT22;513;51.444;7.196;2022-11-28T11:36:22;7.70;99.90
1049;DHT22;513;51.444;7.196;2022-11-28T11:38:49;7.80;99.90
1049;DHT22;513;51.444;7.196;2022-11-28T11:41:27;7.80;99.90
1049;DHT22;513;51.444;7.196;2022-11-28T11:43:55;7.90;99.90
1049;DHT22;513;51.444;7.196;2022-11-28T11:46:23;8.00;99.90
1049;DHT22;513;51.444;7.196;2022-11-28T11:48:51;7.90;99.90
1049;DHT22;513;51.444;7.196;2022-11-28T11:51:24;7.80;99.90
1049;DHT22;513;51.444;7.196;2022-11-28T11:54:02;7.80;99.90
1049;DHT22;513;51.444;7.196;2022-11-28T11:56:31;7.90;99.90
1049;DHT22;513;51.444;7.196;2022-11-28T11:59:02;7.90;99.90
1049;DHT22;513;51.444;7.196;2022-11-28T12:01:32;7.90;99.90
1049;DHT22;513;51.444;7.196;2022-11-28T12:04:02;8.00;99.90
1049;DHT22;513;51.444;7.196;2022-11-28T12:06:35;7.90;99.90
1049;DHT22;513;51.444;7.196;2022-11-28T12:09:12;7.90;99.90
1049;DHT22;513;51.444;7.196;2022-11-28T12:11:46;8.00;99.90
1049;DHT22;513;51.444;7.196;2022-11-28T12:14:25;8.00;99.90
1049;DHT22;513;51.444;7.196;2022-11-28T12:17:03;7.90;99.90
1049;DHT22;513;51.444;7.196;2022-11-28T12:19:40;7.80;99.90
1049;DHT22;513;51.444;7.196;2022-11-28T12:22:15;7.80;99.90
1049;DHT22;513;51.444;7.196;2022-11-28T12:24:51;7.80;99.90
1049;DHT22;513;51.444;7.196;2022-11-28T12:27:29;7.80;99.90
1049;DHT22;513;51.444;7.196;2022-11-28T12:30:15;7.80;99.90
1049;DHT22;513;51.444;7.196;2022-11-28T12:32:53;7.80;99.90
1049;DHT22;513;51.444;7.196;2022-11-28T12:35:29;7.80;99.90
1049;DHT22;513;51.444;7.196;2022-11-28T12:38:04;7.70;99.90
1049;DHT22;513;51.444;7.196;2022-11-28T12:40:36;7.70;99.90
1049;DHT22;513;51.444;7.196;2022-11-28T12:43:18;7.70;99.90
1049;DHT22;513;51.444;7.196;2022-11-28T12:45:54;7.70;99.90
1049;DHT22;513;51.444;7.196;2022-11-28T12:48:35;7.70;99.90
1049;DHT22;513;51.444;7.196;2022-11-28T12:51:13;7.70;99.90
1049;DHT22;513;51.444;7.196;2022-11-28T12:53:54;7.80;99.90
1049;DHT22;513;51.444;7.196;2022-11-28T12:56:43;7.70;99.90
1049;DHT22;513;51.444;7.196;2022-11-28T12:59:18;7.80;99.90
1049;DHT22;513;51.444;7.196;2022-11-28T13:02:06;7.80;99.90
1049;DHT22;513;51.444;7.196;2022-11-28T13:05:01;7.70;99.90
1049;DHT22;513;51.444;7.196;2022-11-28T13:07:37;7.70;99.90
1049;DHT22;513;51.444;7.196;2022-11-28T13:10:10;7.80;99.90
1049;DHT22;513;51.444;7.196;2022-11-28T13:12:44;7.80;99.90
1049;DHT22;513;51.444;7.196;2022-11-28T13:15:19;7.80;99.90
1049;DHT22;513;51.444;7.196;2022-11-28T13:17:55;7.70;99.90
1049;DHT22;513;51.444;7.196;2022-11-28T13:20:29;7.60;99.90
1049;DHT22;513;51.444;7.196;2022-11-28T13:23:07;7.70;99.90
1049;DHT22;513;51.444;7.196;2022-11-28T13:25:41;7.60;99.90
1049;DHT22;513;51.444;7.196;2022-11-28T13:28:14;7.70;99.90
1049;DHT22;513;51.444;7.196;2022-11-28T13:30:49;7.70;99.90
1049;DHT22;513;51.444;7.196;2022-11-28T13:33:37;7.70;99.90
1049;DHT22;513;51.444;7.196;2022-11-28T13:36:12;7.70;99.90
1049;DHT22;513;51.444;7.196;2022-11-28T13:38:47;7.70;99.90
1049;DHT22;513;51.444;7.196;2022-11-28T13:41:19;7.70;99.90
1049;DHT22;513;51.444;7.196;2022-11-28T13:43:52;7.70;99.90
1049;DHT22;513;51.444;7.196;2022-11-28T13:46:22;7.60;99.90
1049;DHT22;513;51.444;7.196;2022-11-28T13:48:58;7.60;99.90
1049;DHT22;513;51.444;7.196;2022-11-28T13:51:28;7.60;99.90
1049;DHT22;513;51.444;7.196;2022-11-28T14:00:02;7.40;99.90
1049;DHT22;513;51.444;7.196;2022-11-28T14:02:39;7.40;99.90
1049;DHT22;513;51.444;7.196;2022-11-28T14:05:21;7.50;99.90
1049;DHT22;513;51.444;7.196;2022-11-28T14:07:51;7.50;99.90
1049;DHT22;513;51.444;7.196;2022-11-28T14:10:38;7.50;99.90
1049;DHT22;513;51.444;7.196;2022-11-28T14:13:27;7.50;99.90
1049;DHT22;513;51.444;7.196;2022-11-28T14:16:05;7.60;99.90
1049;DHT22;513;51.444;7.196;2022-11-28T14:18:47;7.50;99.90
1049;DHT22;513;51.444;7.196;2022-11-28T14:21:24;7.50;99.90
1049;DHT22;513;51.444;7.196;2022-11-28T14:23:58;7.50;99.90
1049;DHT22;513;51.444;7.196;2022-11-28T14:26:31;7.60;99.90
1049;DHT22;513;51.444;7.196;2022-11-28T14:28:59;7.50;99.90
1049;DHT22;513;51.444;7.196;2022-11-28T14:31:29;7.60;99.90
1049;DHT22;513;51.444;7.196;2022-11-28T14:33:58;7.50;99.90
1049;DHT22;513;51.444;7.196;2022-11-28T14:36:26;7.50;99.90
1049;DHT22;513;51.444;7.196;2022-11-28T14:39:09;7.60;99.90
1049;DHT22;513;51.444;7.196;2022-11-28T14:42:19;7.60;99.90
1049;DHT22;513;51.444;7.196;2022-11-28T14:44:48;7.60;99.90
1049;DHT22;513;51.444;7.196;2022-11-28T14:47:17;7.50;99.90
1049;DHT22;513;51.444;7.196;2022-11-28T14:53:36;7.50;99.90
1049;DHT22;513;51.444;7.196;2022-11-28T14:56:21;7.50;99.90
1049;DHT22;513;51.444;7.196;2022-11-28T14:58:51;7.50;99.90
1049;DHT22;513;51.444;7.196;2022-11-28T15:01:29;7.60;99.90
1049;DHT22;513;51.444;7.196;2022-11-28T15:04:16;7.60;99.90
1049;DHT22;513;51.444;7.196;2022-11-28T15:06:46;7.50;99.90
1049;DHT22;513;51.444;7.196;2022-11-28T15:09:17;7.50;99.90
1049;DHT22;513;51.444;7.196;2022-11-28T15:12:02;7.50;99.90
1049;DHT22;513;51.444;7.196;2022-11-28T15:14:34;7.50;99.90
1049;DHT22;513;51.444;7.196;2022-11-28T15:17:02;7.50;99.90
1049;DHT22;513;51.444;7.196;2022-11-28T15:19:33;7.50;99.90
1049;DHT22;513;51.444;7.196;2022-11-28T15:22:02;7.40;99.90
1049;DHT22;513;51.444;7.196;2022-11-28T15:24:31;7.50;99.90
1049;DHT22;513;51.444;7.196;2022-11-28T15:27:17;7.40;99.90
1049;DHT22;513;51.444;7.196;2022-11-28T15:29:53;7.40;99.90
1049;DHT22;513;51.444;7.196;2022-11-28T15:32:20;7.40;99.90
1049;DHT22;513;51.444;7.196;2022-11-28T15:34:51;7.40;99.90
1049;DHT22;513;51.444;7.196;2022-11-28T15:37:19;7.40;99.90
1049;DHT22;513;51.444;7.196;2022-11-28T15:39:47;7.40;99.90
1049;DHT22;513;51.444;7.196;2022-11-28T15:42:21;7.40;99.90
1049;DHT22;513;51.444;7.196;2022-11-28T15:44:52;7.30;99.90
1049;DHT22;513;51.444;7.196;2022-11-28T15:47:21;7.30;99.90
1049;DHT22;513;51.444;7.196;2022-11-28T15:49:58;7.40;99.90
1049;DHT22;513;51.444;7.196;2022-11-28T15:52:25;7.30;99.90
1049;DHT22;513;51.444;7.196;2022-11-28T15:54:52;7.30;99.90
1049;DHT22;513;51.444;7.196;2022-11-28T15:57:21;7.30;99.90
1049;DHT22;513;51.444;7.196;2022-11-28T15:59:49;7.40;99.90
1049;DHT22;513;51.444;7.196;2022-11-28T16:02:20;7.40;99.90
1049;DHT22;513;51.444;7.196;2022-11-28T16:04:58;7.40;99.90
1049;DHT22;513;51.444;7.196;2022-11-28T16:07:25;7.40;99.90
1049;DHT22;513;51.444;7.196;2022-11-28T16:09:56;7.50;99.90
1049;DHT22;513;51.444;7.196;2022-11-28T16:12:25;7.40;99.90
1049;DHT22;513;51.444;7.196;2022-11-28T16:14:52;7.40;99.90
1049;DHT22;513;51.444;7.196;2022-11-28T16:17:26;7.40;99.90
1049;DHT22;513;51.444;7.196;2022-11-28T16:19:54;7.50;99.90
1049;DHT22;513;51.444;7.196;2022-11-28T16:22:27;7.50;99.90
1049;DHT22;513;51.444;7.196;2022-11-28T16:24:55;7.50;99.90
1049;DHT22;513;51.444;7.196;2022-11-28T16:27:31;7.40;99.90
1049;DHT22;513;51.444;7.196;2022-11-28T16:29:59;7.50;99.90
1049;DHT22;513;51.444;7.196;2022-11-28T16:32:31;7.50;99.90
1049;DHT22;513;51.444;7.196;2022-11-28T16:35:01;7.40;99.90
1049;DHT22;513;51.444;7.196;2022-11-28T16:37:29;7.50;99.90
1049;DHT22;513;51.444;7.196;2022-11-28T16:40:02;7.50;99.90
1049;DHT22;513;51.444;7.196;2022-11-28T16:42:32;7.50;99.90
1049;DHT22;513;51.444;7.196;2022-11-28T16:45:07;7.50;99.90
1049;DHT22;513;51.444;7.196;2022-11-28T16:47:34;7.50;99.90
1049;DHT22;513;51.444;7.196;2022-11-28T16:50:18;7.50;99.90
1049;DHT22;513;51.444;7.196;2022-11-28T16:52:49;7.50;99.90
1049;DHT22;513;51.444;7.196;2022-11-28T16:55:40;7.50;99.90
1049;DHT22;513;51.444;7.196;2022-11-28T16:58:19;7.50;99.90
1049;DHT22;513;51.444;7.196;2022-11-28T17:00:57;7.60;99.90
1049;DHT22;513;51.444;7.196;2022-11-28T17:03:45;7.60;99.90
1049;DHT22;513;51.444;7.196;2022-11-28T17:06:16;7.60;99.90
1049;DHT22;513;51.444;7.196;2022-11-28T17:08:43;7.60;99.90
1049;DHT22;513;51.444;7.196;2022-11-28T17:11:10;7.60;99.90
1049;DHT22;513;51.444;7.196;2022-11-28T17:13:40;7.60;99.90